Island Escape — C6SK4 — position and weather

sailwx.info

Track history (hours):
 
Tides and Currents Weather Stations Pressure Air Temp Water Temp Dewpoint Dewpoint Depression Visibility Wind Speed Wind Dir Waves Ship Positions

Island Escape

Operator: V Ships Leisure SAM

Last reported at 2015-Jul-29 18:33 UTC. Time now 2015-Jul-31 01:06 UTC.
Position N 36°26' W 002°14'.

Length 185 m; draft 7.3 m.

Type: Passenger vessel. MMSI: 311368000.

Date/timePositionNaut miles runAvg speedWind from/ knotsBaromVisibWave heightAir tempDewpointWater temp
2015-Jul-29 18:33N 36°26' W 002°14'7111.7
2015-Jul-29 12:27N 37°07' W 001°01'1415.5
2015-Jul-29 11:33N 37°15' W 000°46'1615.8
2015-Jul-29 10:31N 37°24' W 000°29'1615.8
2015-Jul-29 09:32N 37°34' W 000°14'1616.0
2015-Jul-29 08:32N 37°42' E 000°04'1515.5
2015-Jul-29 07:33N 37°51' E 000°20'1615.6
2015-Jul-29 06:33N 37°60' E 000°36'1615.4
2015-Jul-29 05:33N 38°09' E 000°52'1515.2
2015-Jul-29 04:33N 38°17' E 001°08'1615.7
2015-Jul-29 03:33N 38°26' E 001°24'1615.5
2015-Jul-29 02:32N 38°36' E 001°40'73 3.2
2015-Jul-28 03:30N 39°33' E 002°38'7 6.5
2015-Jul-28 02:29N 39°27' E 002°35'1213.1
2015-Jul-28 01:33N 39°25' E 002°19'1715.8
2015-Jul-28 00:30N 39°40' E 002°10'1212.9
2015-Jul-27 23:33N 39°53' E 002°10'1211.6
2015-Jul-27 22:33N 40°04' E 002°09'1313.2
2015-Jul-27 21:33N 40°17' E 002°10'1313.5
2015-Jul-27 20:33N 40°31' E 002°10'1313.1
2015-Jul-27 19:33N 40°44' E 002°12'1312.8
2015-Jul-27 18:33N 40°57' E 002°12'77 4.1
2015-Jul-26 23:33N 41°51' E 003°25'1312.8
2015-Jul-26 22:33N 42°03' E 003°28'1313.3
2015-Jul-26 21:33N 42°16' E 003°32'1313.1
2015-Jul-26 20:33N 42°29' E 003°35'1312.8
2015-Jul-26 19:33N 42°42' E 003°38'1212.1
2015-Jul-26 18:33N 42°54' E 003°41'1212.2
2015-Jul-26 17:33N 43°06' E 003°41'1212.0
2015-Jul-26 16:33N 43°18' E 003°44'6 6.3
2015-Jul-26 15:33N 43°24' E 003°42'0 0.3
2015-Jul-26 14:33N 43°24' E 003°42'0 0.0
2015-Jul-26 13:33N 43°24' E 003°42'0 0.0
2015-Jul-26 12:33N 43°24' E 003°42'0 0.0
2015-Jul-26 11:33N 43°24' E 003°42'0 0.0
2015-Jul-26 10:15N 43°24' E 003°42'0 0.0
2015-Jul-26 09:27N 43°24' E 003°42'0 0.0
2015-Jul-26 08:12N 43°24' E 003°42'0 0.0
2015-Jul-26 07:33N 43°24' E 003°42'0 0.0
2015-Jul-26 06:33N 43°24' E 003°42'0 0.4
2015-Jul-26 05:33N 43°24' E 003°42'7 7.1
2015-Jul-26 04:33N 43°19' E 003°50'1212.2
2015-Jul-26 03:33N 43°15' E 004°06'1313.4
2015-Jul-26 02:33N 43°11' E 004°23'1313.3
2015-Jul-26 01:33N 43°07' E 004°40'1313.2
2015-Jul-26 00:33N 43°03' E 004°58'1313.4
2015-Jul-25 23:33N 42°59' E 005°15'5614.1
2015-Jul-25 19:33N 42°57' E 006°32'1615.7
2015-Jul-25 18:33N 43°09' E 006°46'1515.0
2015-Jul-25 17:32N 43°20' E 006°60'1414.3
2015-Jul-25 16:33N 43°31' E 007°12'9 9.4
2015-Jul-25 15:33N 43°39' E 007°18'2 1.7
2015-Jul-25 14:10N 43°42' E 007°19'0 0.0
2015-Jul-25 13:28N 43°42' E 007°19'0 0.0
2015-Jul-25 09:33N 43°42' E 007°19'0 0.0
2015-Jul-25 08:32N 43°42' E 007°19'0 0.1
2015-Jul-25 07:30N 43°42' E 007°19'0 0.0
2015-Jul-25 06:33N 43°42' E 007°19'0 0.0
2015-Jul-25 05:33N 43°42' E 007°19'0 0.0
2015-Jul-25 04:33N 43°42' E 007°19'5 5.5
2015-Jul-25 03:32N 43°38' E 007°24'5412.4
2015-Jul-24 23:10N 43°34' E 008°39'711.9
2015-Jul-24 22:33N 43°34' E 008°49'1212.3
2015-Jul-24 21:33N 43°33' E 009°06'1212.4
2015-Jul-24 20:33N 43°32' E 009°23'1312.5
2015-Jul-24 19:33N 43°32' E 009°41'1312.6
2015-Jul-24 18:33N 43°31' E 009°58'1212.0
2015-Jul-24 17:33N 43°32' E 010°14'3 2.6
2015-Jul-24 16:31N 43°33' E 010°18'0 0.0
2015-Jul-24 15:31N 43°33' E 010°18'0 0.0
2015-Jul-24 14:31N 43°33' E 010°18'0 0.0
2015-Jul-24 13:31N 43°33' E 010°18'0 0.0
2015-Jul-24 12:31N 43°33' E 010°18'0 0.0
2015-Jul-24 11:31N 43°33' E 010°18'0 0.0
2015-Jul-24 10:31N 43°33' E 010°18'0 0.0
2015-Jul-24 09:31N 43°33' E 010°18'0 0.0
2015-Jul-24 08:31N 43°33' E 010°18'0 0.0
2015-Jul-24 07:31N 43°33' E 010°18'0 0.0
2015-Jul-24 06:31N 43°33' E 010°18'0 0.0
2015-Jul-24 05:31N 43°33' E 010°18'0 0.0
2015-Jul-24 04:33N 43°33' E 010°18'5 5.4
2015-Jul-24 03:33N 43°29' E 010°13'1312.5
2015-Jul-24 02:33N 43°16' E 010°11'1211.6
2015-Jul-24 01:33N 43°05' E 010°09'3 2.6
2015-Jul-24 00:33N 43°03' E 010°06'1 0.5
2015-Jul-23 23:33N 43°04' E 010°06'1 0.7
2015-Jul-23 22:33N 43°04' E 010°06'1 0.8
2015-Jul-23 21:33N 43°05' E 010°06'1 0.9
2015-Jul-23 20:33N 43°06' E 010°06'1 0.9
2015-Jul-23 19:33N 43°07' E 010°06'1 0.6
2015-Jul-23 18:33N 43°08' E 010°06'1010.2
2015-Jul-23 17:33N 42°59' E 010°14'1110.7
2015-Jul-23 16:33N 42°50' E 010°21'1 1.3
2015-Jul-23 15:33N 42°49' E 010°20'0 0.0
2015-Jul-23 13:23N 42°49' E 010°20'0 0.0
2015-Jul-23 12:32N 42°49' E 010°20'0 0.0
2015-Jul-23 09:32N 42°49' E 010°20'0 0.0
2015-Jul-23 08:32N 42°49' E 010°20'0 0.0
2015-Jul-23 07:29N 42°49' E 010°20'0 0.0
2015-Jul-23 06:32N 42°49' E 010°20'5 2.5
2015-Jul-23 04:31N 42°52' E 010°15'1515.3
2015-Jul-23 03:33N 42°54' E 009°55'2713.0
2015-Jul-23 01:30N 43°05' E 009°22'1313.3
2015-Jul-23 00:33N 42°59' E 009°06'1313.1
2015-Jul-22 23:33N 42°53' E 008°51'1313.1
2015-Jul-22 22:33N 42°47' E 008°35'1313.3
2015-Jul-22 21:33N 42°37' E 008°23'1413.6
2015-Jul-22 20:34N 42°27' E 008°10'1313.2
2015-Jul-22 19:33N 42°18' E 007°57'1312.9
2015-Jul-22 18:33N 42°09' E 007°44'1312.8
2015-Jul-22 17:33N 42°00' E 007°32'1414.0
2015-Jul-22 16:33N 41°51' E 007°18'1615.8
2015-Jul-22 15:34N 41°40' E 007°03'1615.7
2015-Jul-22 14:33N 41°29' E 006°48'1515.6
2015-Jul-22 13:33N 41°18' E 006°33'1615.4
2015-Jul-22 12:33N 41°07' E 006°18'1515.4
2015-Jul-22 11:33N 40°57' E 006°03'1515.5
2015-Jul-22 10:33N 40°46' E 005°48'1515.4
2015-Jul-22 09:33N 40°35' E 005°34'1515.3
2015-Jul-22 08:34N 40°25' E 005°19'1515.4
2015-Jul-22 07:33N 40°14' E 005°05'1615.4
2015-Jul-22 06:31N 40°03' E 004°50'1515.2
2015-Jul-22 05:33N 39°53' E 004°36'1515.3
2015-Jul-22 04:33N 39°43' E 004°21'1615.8
2015-Jul-22 03:33N 39°34' E 004°04'1615.9
2015-Jul-22 02:33N 39°25' E 003°46'1615.8
2015-Jul-22 01:33N 39°17' E 003°29'1615.7
2015-Jul-22 00:33N 39°08' E 003°12'1515.3
2015-Jul-21 23:33N 39°03' E 002°54'1515.2
2015-Jul-21 22:33N 39°12' E 002°39'1514.6
2015-Jul-21 21:33N 39°27' E 002°38'6 6.1
2015-Jul-21 20:30N 39°33' E 002°38'0 0.0
2015-Jul-21 19:33N 39°33' E 002°38'0 0.0
2015-Jul-21 18:33N 39°33' E 002°38'0 0.0
2015-Jul-21 17:33N 39°33' E 002°38'0 0.0
2015-Jul-21 16:33N 39°33' E 002°38'0 0.0
2015-Jul-21 15:33N 39°33' E 002°38'0 0.0
2015-Jul-21 14:33N 39°33' E 002°38'0 0.0
2015-Jul-21 13:30N 39°33' E 002°38'0 0.0
2015-Jul-21 12:33N 39°33' E 002°38'0 0.0
2015-Jul-21 11:33N 39°33' E 002°38'0 0.0
2015-Jul-21 10:33N 39°33' E 002°38'0 0.0
2015-Jul-21 09:33N 39°33' E 002°38'0 0.0
2015-Jul-21 08:33N 39°33' E 002°38'0 0.0
2015-Jul-21 07:33N 39°33' E 002°38'0 0.0
2015-Jul-21 06:33N 39°33' E 002°38'0 0.0
2015-Jul-21 05:33N 39°33' E 002°38'0 0.0
2015-Jul-21 04:33N 39°33' E 002°38'0 0.0
2015-Jul-21 03:33N 39°33' E 002°38'7 6.7
2015-Jul-21 02:33N 39°27' E 002°41'1413.8
2015-Jul-21 01:33N 39°14' E 002°46'1211.5
2015-Jul-21 00:33N 39°03' E 002°51'1312.6
2015-Jul-20 23:33N 39°03' E 003°07'1212.5
2015-Jul-20 22:33N 39°09' E 003°21'1313.0
2015-Jul-20 21:33N 39°18' E 003°34'1312.8
2015-Jul-20 20:33N 39°26' E 003°47'1212.4
2015-Jul-20 19:33N 39°34' E 003°59'172 7.8
2015-Jul-19 21:33N 41°27' E 006°50'2115.8
2015-Jul-19 20:13N 41°41' E 007°11'1015.5
2015-Jul-19 19:33N 41°47' E 007°22'  
Track history (hours):
 
Tides and Currents Weather Stations Pressure Air Temp Water Temp Dewpoint Dewpoint Depression Visibility Wind Speed Wind Dir Waves Ship Positions

Island Escape

Operator: V Ships Leisure SAM

Last reported at 2015-Jul-29 18:33 UTC. Time now 2015-Jul-31 01:06 UTC.
Position N 36°26' W 002°14'.

Length 185 m; draft 7.3 m.

Type: Passenger vessel. MMSI: 311368000.

Date/timePositionNaut miles runAvg speedWind from/ knotsBaromVisibWave heightAir tempDewpointWater temp
2015-Jul-29 18:33N 36°26' W 002°14'7111.7
2015-Jul-29 12:27N 37°07' W 001°01'1415.5
2015-Jul-29 11:33N 37°15' W 000°46'1615.8
2015-Jul-29 10:31N 37°24' W 000°29'1615.8
2015-Jul-29 09:32N 37°34' W 000°14'1616.0
2015-Jul-29 08:32N 37°42' E 000°04'1515.5
2015-Jul-29 07:33N 37°51' E 000°20'1615.6
2015-Jul-29 06:33N 37°60' E 000°36'1615.4
2015-Jul-29 05:33N 38°09' E 000°52'1515.2
2015-Jul-29 04:33N 38°17' E 001°08'1615.7
2015-Jul-29 03:33N 38°26' E 001°24'1615.5
2015-Jul-29 02:32N 38°36' E 001°40'73 3.2
2015-Jul-28 03:30N 39°33' E 002°38'7 6.5
2015-Jul-28 02:29N 39°27' E 002°35'1213.1
2015-Jul-28 01:33N 39°25' E 002°19'1715.8
2015-Jul-28 00:30N 39°40' E 002°10'1212.9
2015-Jul-27 23:33N 39°53' E 002°10'1211.6
2015-Jul-27 22:33N 40°04' E 002°09'1313.2
2015-Jul-27 21:33N 40°17' E 002°10'1313.5
2015-Jul-27 20:33N 40°31' E 002°10'1313.1
2015-Jul-27 19:33N 40°44' E 002°12'1312.8
2015-Jul-27 18:33N 40°57' E 002°12'77 4.1
2015-Jul-26 23:33N 41°51' E 003°25'1312.8
2015-Jul-26 22:33N 42°03' E 003°28'1313.3
2015-Jul-26 21:33N 42°16' E 003°32'1313.1
2015-Jul-26 20:33N 42°29' E 003°35'1312.8
2015-Jul-26 19:33N 42°42' E 003°38'1212.1
2015-Jul-26 18:33N 42°54' E 003°41'1212.2
2015-Jul-26 17:33N 43°06' E 003°41'1212.0
2015-Jul-26 16:33N 43°18' E 003°44'6 6.3
2015-Jul-26 15:33N 43°24' E 003°42'0 0.3
2015-Jul-26 14:33N 43°24' E 003°42'0 0.0
2015-Jul-26 13:33N 43°24' E 003°42'0 0.0
2015-Jul-26 12:33N 43°24' E 003°42'0 0.0
2015-Jul-26 11:33N 43°24' E 003°42'0 0.0
2015-Jul-26 10:15N 43°24' E 003°42'0 0.0
2015-Jul-26 09:27N 43°24' E 003°42'0 0.0
2015-Jul-26 08:12N 43°24' E 003°42'0 0.0
2015-Jul-26 07:33N 43°24' E 003°42'0 0.0
2015-Jul-26 06:33N 43°24' E 003°42'0 0.4
2015-Jul-26 05:33N 43°24' E 003°42'7 7.1
2015-Jul-26 04:33N 43°19' E 003°50'1212.2
2015-Jul-26 03:33N 43°15' E 004°06'1313.4
2015-Jul-26 02:33N 43°11' E 004°23'1313.3
2015-Jul-26 01:33N 43°07' E 004°40'1313.2
2015-Jul-26 00:33N 43°03' E 004°58'1313.4
2015-Jul-25 23:33N 42°59' E 005°15'5614.1
2015-Jul-25 19:33N 42°57' E 006°32'1615.7
2015-Jul-25 18:33N 43°09' E 006°46'1515.0
2015-Jul-25 17:32N 43°20' E 006°60'1414.3
2015-Jul-25 16:33N 43°31' E 007°12'9 9.4
2015-Jul-25 15:33N 43°39' E 007°18'2 1.7
2015-Jul-25 14:10N 43°42' E 007°19'0 0.0
2015-Jul-25 13:28N 43°42' E 007°19'0 0.0
2015-Jul-25 09:33N 43°42' E 007°19'0 0.0
2015-Jul-25 08:32N 43°42' E 007°19'0 0.1
2015-Jul-25 07:30N 43°42' E 007°19'0 0.0
2015-Jul-25 06:33N 43°42' E 007°19'0 0.0
2015-Jul-25 05:33N 43°42' E 007°19'0 0.0
2015-Jul-25 04:33N 43°42' E 007°19'5 5.5
2015-Jul-25 03:32N 43°38' E 007°24'5412.4
2015-Jul-24 23:10N 43°34' E 008°39'711.9
2015-Jul-24 22:33N 43°34' E 008°49'1212.3
2015-Jul-24 21:33N 43°33' E 009°06'1212.4
2015-Jul-24 20:33N 43°32' E 009°23'1312.5
2015-Jul-24 19:33N 43°32' E 009°41'1312.6
2015-Jul-24 18:33N 43°31' E 009°58'1212.0
2015-Jul-24 17:33N 43°32' E 010°14'3 2.6
2015-Jul-24 16:31N 43°33' E 010°18'0 0.0
2015-Jul-24 15:31N 43°33' E 010°18'0 0.0
2015-Jul-24 14:31N 43°33' E 010°18'0 0.0
2015-Jul-24 13:31N 43°33' E 010°18'0 0.0
2015-Jul-24 12:31N 43°33' E 010°18'0 0.0
2015-Jul-24 11:31N 43°33' E 010°18'0 0.0
2015-Jul-24 10:31N 43°33' E 010°18'0 0.0
2015-Jul-24 09:31N 43°33' E 010°18'0 0.0
2015-Jul-24 08:31N 43°33' E 010°18'0 0.0
2015-Jul-24 07:31N 43°33' E 010°18'0 0.0
2015-Jul-24 06:31N 43°33' E 010°18'0 0.0
2015-Jul-24 05:31N 43°33' E 010°18'0 0.0
2015-Jul-24 04:33N 43°33' E 010°18'5 5.4
2015-Jul-24 03:33N 43°29' E 010°13'1312.5
2015-Jul-24 02:33N 43°16' E 010°11'1211.6
2015-Jul-24 01:33N 43°05' E 010°09'3 2.6
2015-Jul-24 00:33N 43°03' E 010°06'1 0.5
2015-Jul-23 23:33N 43°04' E 010°06'1 0.7
2015-Jul-23 22:33N 43°04' E 010°06'1 0.8
2015-Jul-23 21:33N 43°05' E 010°06'1 0.9
2015-Jul-23 20:33N 43°06' E 010°06'1 0.9
2015-Jul-23 19:33N 43°07' E 010°06'1 0.6
2015-Jul-23 18:33N 43°08' E 010°06'1010.2
2015-Jul-23 17:33N 42°59' E 010°14'1110.7
2015-Jul-23 16:33N 42°50' E 010°21'1 1.3
2015-Jul-23 15:33N 42°49' E 010°20'0 0.0
2015-Jul-23 13:23N 42°49' E 010°20'0 0.0
2015-Jul-23 12:32N 42°49' E 010°20'0 0.0
2015-Jul-23 09:32N 42°49' E 010°20'0 0.0
2015-Jul-23 08:32N 42°49' E 010°20'0 0.0
2015-Jul-23 07:29N 42°49' E 010°20'0 0.0
2015-Jul-23 06:32N 42°49' E 010°20'5 2.5
2015-Jul-23 04:31N 42°52' E 010°15'1515.3
2015-Jul-23 03:33N 42°54' E 009°55'2713.0
2015-Jul-23 01:30N 43°05' E 009°22'1313.3
2015-Jul-23 00:33N 42°59' E 009°06'1313.1
2015-Jul-22 23:33N 42°53' E 008°51'1313.1
2015-Jul-22 22:33N 42°47' E 008°35'1313.3
2015-Jul-22 21:33N 42°37' E 008°23'1413.6
2015-Jul-22 20:34N 42°27' E 008°10'1313.2
2015-Jul-22 19:33N 42°18' E 007°57'1312.9
2015-Jul-22 18:33N 42°09' E 007°44'1312.8
2015-Jul-22 17:33N 42°00' E 007°32'1414.0
2015-Jul-22 16:33N 41°51' E 007°18'1615.8
2015-Jul-22 15:34N 41°40' E 007°03'1615.7
2015-Jul-22 14:33N 41°29' E 006°48'1515.6
2015-Jul-22 13:33N 41°18' E 006°33'1615.4
2015-Jul-22 12:33N 41°07' E 006°18'1515.4
2015-Jul-22 11:33N 40°57' E 006°03'1515.5
2015-Jul-22 10:33N 40°46' E 005°48'1515.4
2015-Jul-22 09:33N 40°35' E 005°34'1515.3
2015-Jul-22 08:34N 40°25' E 005°19'1515.4
2015-Jul-22 07:33N 40°14' E 005°05'1615.4
2015-Jul-22 06:31N 40°03' E 004°50'1515.2
2015-Jul-22 05:33N 39°53' E 004°36'1515.3
2015-Jul-22 04:33N 39°43' E 004°21'1615.8
2015-Jul-22 03:33N 39°34' E 004°04'1615.9
2015-Jul-22 02:33N 39°25' E 003°46'1615.8
2015-Jul-22 01:33N 39°17' E 003°29'1615.7
2015-Jul-22 00:33N 39°08' E 003°12'1515.3
2015-Jul-21 23:33N 39°03' E 002°54'1515.2
2015-Jul-21 22:33N 39°12' E 002°39'1514.6
2015-Jul-21 21:33N 39°27' E 002°38'6 6.1
2015-Jul-21 20:30N 39°33' E 002°38'0 0.0
2015-Jul-21 19:33N 39°33' E 002°38'0 0.0
2015-Jul-21 18:33N 39°33' E 002°38'0 0.0
2015-Jul-21 17:33N 39°33' E 002°38'0 0.0
2015-Jul-21 16:33N 39°33' E 002°38'0 0.0
2015-Jul-21 15:33N 39°33' E 002°38'0 0.0
2015-Jul-21 14:33N 39°33' E 002°38'0 0.0
2015-Jul-21 13:30N 39°33' E 002°38'0 0.0
2015-Jul-21 12:33N 39°33' E 002°38'0 0.0
2015-Jul-21 11:33N 39°33' E 002°38'0 0.0
2015-Jul-21 10:33N 39°33' E 002°38'0 0.0
2015-Jul-21 09:33N 39°33' E 002°38'0 0.0
2015-Jul-21 08:33N 39°33' E 002°38'0 0.0
2015-Jul-21 07:33N 39°33' E 002°38'0 0.0
2015-Jul-21 06:33N 39°33' E 002°38'0 0.0
2015-Jul-21 05:33N 39°33' E 002°38'0 0.0
2015-Jul-21 04:33N 39°33' E 002°38'0 0.0
2015-Jul-21 03:33N 39°33' E 002°38'7 6.7
2015-Jul-21 02:33N 39°27' E 002°41'1413.8
2015-Jul-21 01:33N 39°14' E 002°46'1211.5
2015-Jul-21 00:33N 39°03' E 002°51'1312.6
2015-Jul-20 23:33N 39°03' E 003°07'1212.5
2015-Jul-20 22:33N 39°09' E 003°21'1313.0
2015-Jul-20 21:33N 39°18' E 003°34'1312.8
2015-Jul-20 20:33N 39°26' E 003°47'1212.4
2015-Jul-20 19:33N 39°34' E 003°59'172 7.8
2015-Jul-19 21:33N 41°27' E 006°50'2115.8
2015-Jul-19 20:13N 41°41' E 007°11'1015.5
2015-Jul-19 19:33N 41°47' E 007°22'  

Dump ship's entire track history